sensor_id;sensor_type;location;lat;lon;timestamp;temperature;humidity
983;DHT22;480;48.124;11.578;2023-02-14T00:00:26;1.90;99.90
983;DHT22;480;48.124;11.578;2023-02-14T00:02:57;2.00;99.90
983;DHT22;480;48.124;11.578;2023-02-14T00:05:26;2.10;99.90
983;DHT22;480;48.124;11.578;2023-02-14T00:08:00;2.10;99.90
983;DHT22;480;48.124;11.578;2023-02-14T00:10:31;1.80;99.90
983;DHT22;480;48.124;11.578;2023-02-14T00:13:08;1.40;99.90
983;DHT22;480;48.124;11.578;2023-02-14T00:15:36;1.20;99.90
983;DHT22;480;48.124;11.578;2023-02-14T00:18:04;1.10;99.90
983;DHT22;480;48.124;11.578;2023-02-14T00:20:32;0.90;99.90
983;DHT22;480;48.124;11.578;2023-02-14T00:23:14;0.90;99.90
983;DHT22;480;48.124;11.578;2023-02-14T00:25:57;0.90;99.90
983;DHT22;480;48.124;11.578;2023-02-14T00:28:37;1.00;99.90
983;DHT22;480;48.124;11.578;2023-02-14T00:31:06;1.10;99.90
983;DHT22;480;48.124;11.578;2023-02-14T00:33:35;0.90;99.90
983;DHT22;480;48.124;11.578;2023-02-14T00:36:08;0.90;99.90
983;DHT22;480;48.124;11.578;2023-02-14T00:38:42;0.80;99.90
983;DHT22;480;48.124;11.578;2023-02-14T00:41:16;0.60;99.90
983;DHT22;480;48.124;11.578;2023-02-14T00:43:47;0.50;99.90
983;DHT22;480;48.124;11.578;2023-02-14T00:46:27;0.30;99.90
983;DHT22;480;48.124;11.578;2023-02-14T00:49:02;0.10;99.90
983;DHT22;480;48.124;11.578;2023-02-14T00:51:32;0.20;99.90
983;DHT22;480;48.124;11.578;2023-02-14T00:54:05;0.10;99.90
983;DHT22;480;48.124;11.578;2023-02-14T00:56:36;0.20;99.90
983;DHT22;480;48.124;11.578;2023-02-14T00:59:08;0.20;99.90
983;DHT22;480;48.124;11.578;2023-02-14T01:01:50;0.20;99.90
983;DHT22;480;48.124;11.578;2023-02-14T01:04:23;0.20;99.90
983;DHT22;480;48.124;11.578;2023-02-14T01:06:55;0.00;99.90
983;DHT22;480;48.124;11.578;2023-02-14T01:09:35;0.00;99.90
983;DHT22;480;48.124;11.578;2023-02-14T01:12:09;-0.10;99.90
983;DHT22;480;48.124;11.578;2023-02-14T01:14:44;-0.10;99.90
983;DHT22;480;48.124;11.578;2023-02-14T01:17:13;0.10;99.90
983;DHT22;480;48.124;11.578;2023-02-14T01:19:42;0.50;99.90
983;DHT22;480;48.124;11.578;2023-02-14T01:22:10;0.60;99.90
983;DHT22;480;48.124;11.578;2023-02-14T01:24:38;0.70;99.90
983;DHT22;480;48.124;11.578;2023-02-14T01:27:23;0.80;99.90
983;DHT22;480;48.124;11.578;2023-02-14T01:29:52;0.90;99.90
983;DHT22;480;48.124;11.578;2023-02-14T01:32:20;0.70;99.90
983;DHT22;480;48.124;11.578;2023-02-14T01:34:48;0.90;99.90
983;DHT22;480;48.124;11.578;2023-02-14T01:37:16;1.00;99.90
983;DHT22;480;48.124;11.578;2023-02-14T01:39:49;1.00;99.90
983;DHT22;480;48.124;11.578;2023-02-14T01:42:17;1.10;99.90
983;DHT22;480;48.124;11.578;2023-02-14T01:45:00;1.00;99.90
983;DHT22;480;48.124;11.578;2023-02-14T01:47:30;0.80;99.90
983;DHT22;480;48.124;11.578;2023-02-14T01:50:03;1.10;99.90
983;DHT22;480;48.124;11.578;2023-02-14T01:52:36;1.30;99.90
983;DHT22;480;48.124;11.578;2023-02-14T01:55:11;1.40;99.90
983;DHT22;480;48.124;11.578;2023-02-14T01:57:43;1.10;99.90
983;DHT22;480;48.124;11.578;2023-02-14T02:00:32;1.20;99.90
983;DHT22;480;48.124;11.578;2023-02-14T02:03:18;1.20;99.90
983;DHT22;480;48.124;11.578;2023-02-14T02:05:48;0.90;99.90
983;DHT22;480;48.124;11.578;2023-02-14T02:08:20;0.80;99.90
983;DHT22;480;48.124;11.578;2023-02-14T02:11:00;0.50;99.90
983;DHT22;480;48.124;11.578;2023-02-14T02:13:28;0.10;99.90
983;DHT22;480;48.124;11.578;2023-02-14T02:16:10;0.10;99.90
983;DHT22;480;48.124;11.578;2023-02-14T02:18:53;0.10;99.90
983;DHT22;480;48.124;11.578;2023-02-14T02:24:39;-0.10;99.90
983;DHT22;480;48.124;11.578;2023-02-14T02:27:33;-0.30;99.90
983;DHT22;480;48.124;11.578;2023-02-14T02:30:55;-0.10;99.90
983;DHT22;480;48.124;11.578;2023-02-14T02:34:09;-0.10;99.90
983;DHT22;480;48.124;11.578;2023-02-14T02:50:22;0.00;99.90
983;DHT22;480;48.124;11.578;2023-02-14T02:53:16;0.40;99.90
983;DHT22;480;48.124;11.578;2023-02-14T02:55:56;0.40;99.90
983;DHT22;480;48.124;11.578;2023-02-14T02:58:46;0.30;99.90
983;DHT22;480;48.124;11.578;2023-02-14T03:01:22;0.50;99.90
983;DHT22;480;48.124;11.578;2023-02-14T03:03:54;0.60;99.90
983;DHT22;480;48.124;11.578;2023-02-14T03:06:43;0.70;99.90
983;DHT22;480;48.124;11.578;2023-02-14T03:12:12;0.30;99.90
983;DHT22;480;48.124;11.578;2023-02-14T03:14:53;-0.10;99.90
983;DHT22;480;48.124;11.578;2023-02-14T03:17:27;-0.10;99.90
983;DHT22;480;48.124;11.578;2023-02-14T03:20:16;0.10;99.90
983;DHT22;480;48.124;11.578;2023-02-14T03:22:52;0.40;99.90
983;DHT22;480;48.124;11.578;2023-02-14T03:25:38;0.00;99.90
983;DHT22;480;48.124;11.578;2023-02-14T03:28:13;0.00;99.90
983;DHT22;480;48.124;11.578;2023-02-14T03:30:50;-0.30;99.90
983;DHT22;480;48.124;11.578;2023-02-14T03:33:26;-0.20;99.90
983;DHT22;480;48.124;11.578;2023-02-14T03:36:00;0.10;99.90
983;DHT22;480;48.124;11.578;2023-02-14T03:38:38;0.10;99.90
983;DHT22;480;48.124;11.578;2023-02-14T03:41:12;0.40;99.90
983;DHT22;480;48.124;11.578;2023-02-14T03:43:45;0.70;99.90
983;DHT22;480;48.124;11.578;2023-02-14T03:46:22;0.80;99.90
983;DHT22;480;48.124;11.578;2023-02-14T03:48:53;0.50;99.90
983;DHT22;480;48.124;11.578;2023-02-14T03:51:24;0.40;99.90
983;DHT22;480;48.124;11.578;2023-02-14T03:53:57;0.70;99.90
983;DHT22;480;48.124;11.578;2023-02-14T03:56:34;0.60;99.90
983;DHT22;480;48.124;11.578;2023-02-14T03:59:08;0.80;99.90
983;DHT22;480;48.124;11.578;2023-02-14T04:01:56;0.60;99.90
983;DHT22;480;48.124;11.578;2023-02-14T04:04:40;0.00;99.90
983;DHT22;480;48.124;11.578;2023-02-14T04:07:10;-0.30;99.90
983;DHT22;480;48.124;11.578;2023-02-14T04:09:43;-0.50;99.90
983;DHT22;480;48.124;11.578;2023-02-14T04:12:12;-0.50;99.90
983;DHT22;480;48.124;11.578;2023-02-14T04:14:44;-0.40;99.90
983;DHT22;480;48.124;11.578;2023-02-14T04:17:16;-0.60;99.90
983;DHT22;480;48.124;11.578;2023-02-14T04:20:01;-0.50;99.90
983;DHT22;480;48.124;11.578;2023-02-14T04:22:29;-0.70;99.90
983;DHT22;480;48.124;11.578;2023-02-14T04:25:01;-0.70;99.90
983;DHT22;480;48.124;11.578;2023-02-14T04:27:28;-0.40;99.90
983;DHT22;480;48.124;11.578;2023-02-14T04:29:56;-0.20;99.90
983;DHT22;480;48.124;11.578;2023-02-14T04:32:23;-0.70;99.90
983;DHT22;480;48.124;11.578;2023-02-14T04:34:50;-0.50;99.90
983;DHT22;480;48.124;11.578;2023-02-14T04:37:21;-0.30;99.90
983;DHT22;480;48.124;11.578;2023-02-14T04:39:49;-0.20;99.90
983;DHT22;480;48.124;11.578;2023-02-14T04:42:20;-0.10;99.90
983;DHT22;480;48.124;11.578;2023-02-14T04:44:47;-0.20;99.90
983;DHT22;480;48.124;11.578;2023-02-14T04:47:16;-0.50;99.90
983;DHT22;480;48.124;11.578;2023-02-14T04:49:44;-0.50;99.90
983;DHT22;480;48.124;11.578;2023-02-14T04:52:12;-0.30;99.90
983;DHT22;480;48.124;11.578;2023-02-14T04:54:40;-0.30;99.90
983;DHT22;480;48.124;11.578;2023-02-14T04:57:08;0.00;99.90
983;DHT22;480;48.124;11.578;2023-02-14T04:59:38;0.10;99.90
983;DHT22;480;48.124;11.578;2023-02-14T05:02:08;0.20;99.90
983;DHT22;480;48.124;11.578;2023-02-14T05:04:36;-0.10;99.90
983;DHT22;480;48.124;11.578;2023-02-14T05:07:05;0.00;99.90
983;DHT22;480;48.124;11.578;2023-02-14T05:09:32;0.20;99.90
983;DHT22;480;48.124;11.578;2023-02-14T05:12:00;0.40;99.90
983;DHT22;480;48.124;11.578;2023-02-14T05:14:27;0.50;99.90
983;DHT22;480;48.124;11.578;2023-02-14T05:16:58;0.50;99.90
983;DHT22;480;48.124;11.578;2023-02-14T05:19:26;0.50;99.90
983;DHT22;480;48.124;11.578;2023-02-14T05:21:53;0.60;99.90
983;DHT22;480;48.124;11.578;2023-02-14T05:24:21;0.70;99.90
983;DHT22;480;48.124;11.578;2023-02-14T05:26:48;0.60;99.90
983;DHT22;480;48.124;11.578;2023-02-14T05:29:15;0.30;99.90
983;DHT22;480;48.124;11.578;2023-02-14T05:31:43;0.40;99.90
983;DHT22;480;48.124;11.578;2023-02-14T05:34:12;0.50;99.90
983;DHT22;480;48.124;11.578;2023-02-14T05:36:39;0.60;99.90
983;DHT22;480;48.124;11.578;2023-02-14T05:39:06;0.70;99.90
983;DHT22;480;48.124;11.578;2023-02-14T05:41:33;0.60;99.90
983;DHT22;480;48.124;11.578;2023-02-14T05:44:01;0.60;99.90
983;DHT22;480;48.124;11.578;2023-02-14T05:46:28;0.70;99.90
983;DHT22;480;48.124;11.578;2023-02-14T05:48:55;0.60;99.90
983;DHT22;480;48.124;11.578;2023-02-14T05:51:24;0.50;99.90
983;DHT22;480;48.124;11.578;2023-02-14T05:53:51;0.50;99.90
983;DHT22;480;48.124;11.578;2023-02-14T05:56:18;0.40;99.90
983;DHT22;480;48.124;11.578;2023-02-14T05:58:46;0.10;99.90
983;DHT22;480;48.124;11.578;2023-02-14T06:01:13;-0.10;99.90
983;DHT22;480;48.124;11.578;2023-02-14T06:03:40;0.00;99.90
983;DHT22;480;48.124;11.578;2023-02-14T06:06:07;0.20;99.90
983;DHT22;480;48.124;11.578;2023-02-14T06:08:37;0.30;99.90
983;DHT22;480;48.124;11.578;2023-02-14T06:11:04;0.30;99.90
983;DHT22;480;48.124;11.578;2023-02-14T06:13:31;0.50;99.90
983;DHT22;480;48.124;11.578;2023-02-14T06:15:58;0.50;99.90
983;DHT22;480;48.124;11.578;2023-02-14T06:18:25;0.60;99.90
983;DHT22;480;48.124;11.578;2023-02-14T06:20:54;0.70;99.90
983;DHT22;480;48.124;11.578;2023-02-14T06:23:21;0.80;99.90
983;DHT22;480;48.124;11.578;2023-02-14T06:25:50;0.70;99.90
983;DHT22;480;48.124;11.578;2023-02-14T06:28:17;0.70;99.90
983;DHT22;480;48.124;11.578;2023-02-14T06:30:45;0.80;99.90
983;DHT22;480;48.124;11.578;2023-02-14T06:33:13;1.00;99.90
983;DHT22;480;48.124;11.578;2023-02-14T06:35:40;1.00;99.90
983;DHT22;480;48.124;11.578;2023-02-14T06:38:07;1.10;99.90
983;DHT22;480;48.124;11.578;2023-02-14T06:40:34;1.00;99.90
983;DHT22;480;48.124;11.578;2023-02-14T06:43:04;1.10;99.90
983;DHT22;480;48.124;11.578;2023-02-14T06:45:31;1.00;99.90
983;DHT22;480;48.124;11.578;2023-02-14T06:47:59;1.00;99.90
983;DHT22;480;48.124;11.578;2023-02-14T06:50:26;1.10;99.90
983;DHT22;480;48.124;11.578;2023-02-14T06:52:54;0.90;99.90
983;DHT22;480;48.124;11.578;2023-02-14T06:55:21;0.60;99.90
983;DHT22;480;48.124;11.578;2023-02-14T06:57:48;0.20;99.90
983;DHT22;480;48.124;11.578;2023-02-14T07:00:18;0.00;99.90
983;DHT22;480;48.124;11.578;2023-02-14T07:02:46;-0.40;99.90
983;DHT22;480;48.124;11.578;2023-02-14T07:05:14;-0.50;99.90
983;DHT22;480;48.124;11.578;2023-02-14T07:07:43;-0.30;99.90
983;DHT22;480;48.124;11.578;2023-02-14T07:10:11;-0.40;99.90
983;DHT22;480;48.124;11.578;2023-02-14T07:12:38;-0.10;99.90
983;DHT22;480;48.124;11.578;2023-02-14T07:15:06;-0.30;99.90
983;DHT22;480;48.124;11.578;2023-02-14T07:17:35;0.00;99.90
983;DHT22;480;48.124;11.578;2023-02-14T07:20:03;0.10;99.90
983;DHT22;480;48.124;11.578;2023-02-14T07:22:31;0.10;99.90
983;DHT22;480;48.124;11.578;2023-02-14T07:24:58;0.20;99.90
983;DHT22;480;48.124;11.578;2023-02-14T07:27:26;-0.10;99.90
983;DHT22;480;48.124;11.578;2023-02-14T07:29:53;-0.10;99.90
983;DHT22;480;48.124;11.578;2023-02-14T07:32:20;-0.30;99.90
983;DHT22;480;48.124;11.578;2023-02-14T07:34:49;-0.50;99.90
983;DHT22;480;48.124;11.578;2023-02-14T07:37:17;-0.20;99.90
983;DHT22;480;48.124;11.578;2023-02-14T07:39:45;0.00;99.90
983;DHT22;480;48.124;11.578;2023-02-14T07:42:12;0.10;99.90
983;DHT22;480;48.124;11.578;2023-02-14T07:44:39;0.30;99.90
983;DHT22;480;48.124;11.578;2023-02-14T07:47:08;0.40;99.90
983;DHT22;480;48.124;11.578;2023-02-14T07:49:35;0.60;99.90
983;DHT22;480;48.124;11.578;2023-02-14T07:52:08;0.70;99.90
983;DHT22;480;48.124;11.578;2023-02-14T07:54:37;0.70;99.90
983;DHT22;480;48.124;11.578;2023-02-14T07:57:07;0.80;99.90
983;DHT22;480;48.124;11.578;2023-02-14T07:59:48;0.80;99.90
983;DHT22;480;48.124;11.578;2023-02-14T08:02:19;0.50;99.90
983;DHT22;480;48.124;11.578;2023-02-14T08:04:48;0.40;99.90
983;DHT22;480;48.124;11.578;2023-02-14T08:07:19;0.30;99.90
983;DHT22;480;48.124;11.578;2023-02-14T08:09:48;0.50;99.90
983;DHT22;480;48.124;11.578;2023-02-14T08:12:17;0.40;99.90
983;DHT22;480;48.124;11.578;2023-02-14T08:15:03;0.40;99.90
983;DHT22;480;48.124;11.578;2023-02-14T08:17:48;0.50;99.90
983;DHT22;480;48.124;11.578;2023-02-14T08:20:17;0.70;99.90
983;DHT22;480;48.124;11.578;2023-02-14T08:22:54;0.90;99.90
983;DHT22;480;48.124;11.578;2023-02-14T08:25:23;1.00;99.90
983;DHT22;480;48.124;11.578;2023-02-14T08:27:54;1.10;99.90
983;DHT22;480;48.124;11.578;2023-02-14T08:30:22;1.30;99.90
983;DHT22;480;48.124;11.578;2023-02-14T08:32:51;1.40;99.90
983;DHT22;480;48.124;11.578;2023-02-14T08:35:21;1.40;99.90
983;DHT22;480;48.124;11.578;2023-02-14T08:37:53;1.00;99.90
983;DHT22;480;48.124;11.578;2023-02-14T08:40:33;1.20;99.90
983;DHT22;480;48.124;11.578;2023-02-14T08:43:02;1.20;99.90
983;DHT22;480;48.124;11.578;2023-02-14T08:45:30;0.90;99.90
983;DHT22;480;48.124;11.578;2023-02-14T08:48:02;1.00;99.90
983;DHT22;480;48.124;11.578;2023-02-14T08:50:32;1.20;99.90
983;DHT22;480;48.124;11.578;2023-02-14T08:53:05;1.40;99.90
983;DHT22;480;48.124;11.578;2023-02-14T08:55:33;1.50;99.90
983;DHT22;480;48.124;11.578;2023-02-14T08:58:01;1.70;99.90
983;DHT22;480;48.124;11.578;2023-02-14T09:00:28;1.70;99.90
983;DHT22;480;48.124;11.578;2023-02-14T09:02:56;2.00;99.90
983;DHT22;480;48.124;11.578;2023-02-14T09:05:24;1.90;99.90
983;DHT22;480;48.124;11.578;2023-02-14T09:07:52;1.70;99.90
983;DHT22;480;48.124;11.578;2023-02-14T09:10:23;1.40;99.90
983;DHT22;480;48.124;11.578;2023-02-14T09:12:52;1.40;99.90
983;DHT22;480;48.124;11.578;2023-02-14T09:15:20;1.30;99.90
983;DHT22;480;48.124;11.578;2023-02-14T09:18:00;1.50;99.90
983;DHT22;480;48.124;11.578;2023-02-14T09:20:28;1.70;99.90
983;DHT22;480;48.124;11.578;2023-02-14T09:22:56;1.80;99.90
983;DHT22;480;48.124;11.578;2023-02-14T09:25:29;1.90;99.90
983;DHT22;480;48.124;11.578;2023-02-14T09:27:58;1.80;99.90
983;DHT22;480;48.124;11.578;2023-02-14T09:30:28;1.40;99.90
983;DHT22;480;48.124;11.578;2023-02-14T09:32:56;1.50;99.90
983;DHT22;480;48.124;11.578;2023-02-14T09:35:30;1.80;99.90
983;DHT22;480;48.124;11.578;2023-02-14T09:37:59;2.00;99.90
983;DHT22;480;48.124;11.578;2023-02-14T09:40:37;2.30;99.90
983;DHT22;480;48.124;11.578;2023-02-14T09:43:08;2.50;99.90
983;DHT22;480;48.124;11.578;2023-02-14T09:45:38;2.70;99.90
983;DHT22;480;48.124;11.578;2023-02-14T09:48:19;2.90;99.90
983;DHT22;480;48.124;11.578;2023-02-14T09:50:58;3.10;99.90
983;DHT22;480;48.124;11.578;2023-02-14T09:53:28;3.20;99.90
983;DHT22;480;48.124;11.578;2023-02-14T09:56:04;3.40;99.90
983;DHT22;480;48.124;11.578;2023-02-14T09:58:40;3.30;99.90
983;DHT22;480;48.124;11.578;2023-02-14T10:01:14;3.30;99.90
983;DHT22;480;48.124;11.578;2023-02-14T10:03:58;3.20;99.90
983;DHT22;480;48.124;11.578;2023-02-14T10:06:44;3.00;99.90
983;DHT22;480;48.124;11.578;2023-02-14T10:09:51;3.30;99.90
983;DHT22;480;48.124;11.578;2023-02-14T10:12:28;3.50;99.90
983;DHT22;480;48.124;11.578;2023-02-14T10:15:00;3.50;99.90
983;DHT22;480;48.124;11.578;2023-02-14T10:17:35;3.80;99.90
983;DHT22;480;48.124;11.578;2023-02-14T10:20:14;4.00;99.90
983;DHT22;480;48.124;11.578;2023-02-14T10:22:45;4.10;99.90
983;DHT22;480;48.124;11.578;2023-02-14T10:25:18;4.10;99.90
983;DHT22;480;48.124;11.578;2023-02-14T10:27:49;4.00;99.90
983;DHT22;480;48.124;11.578;2023-02-14T10:30:20;3.90;99.90
983;DHT22;480;48.124;11.578;2023-02-14T10:32:52;4.00;99.90
983;DHT22;480;48.124;11.578;2023-02-14T10:35:32;4.10;99.90
983;DHT22;480;48.124;11.578;2023-02-14T10:38:08;4.40;99.90
983;DHT22;480;48.124;11.578;2023-02-14T10:40:49;4.50;99.90
983;DHT22;480;48.124;11.578;2023-02-14T10:43:27;4.70;99.90
983;DHT22;480;48.124;11.578;2023-02-14T10:46:06;4.90;99.90
983;DHT22;480;48.124;11.578;2023-02-14T10:48:50;5.00;99.90
983;DHT22;480;48.124;11.578;2023-02-14T10:51:25;5.20;99.90
983;DHT22;480;48.124;11.578;2023-02-14T10:54:08;5.10;99.90
983;DHT22;480;48.124;11.578;2023-02-14T10:56:40;5.00;99.90
983;DHT22;480;48.124;11.578;2023-02-14T10:59:17;5.20;99.90
983;DHT22;480;48.124;11.578;2023-02-14T11:01:48;5.40;99.90
983;DHT22;480;48.124;11.578;2023-02-14T11:04:21;5.70;99.90
983;DHT22;480;48.124;11.578;2023-02-14T11:06:49;5.70;99.90
983;DHT22;480;48.124;11.578;2023-02-14T11:09:18;5.80;99.90
983;DHT22;480;48.124;11.578;2023-02-14T11:11:49;5.90;99.90
983;DHT22;480;48.124;11.578;2023-02-14T11:14:24;6.00;99.90
983;DHT22;480;48.124;11.578;2023-02-14T11:16:53;6.00;99.90
983;DHT22;480;48.124;11.578;2023-02-14T11:19:24;6.00;99.90
983;DHT22;480;48.124;11.578;2023-02-14T11:21:54;6.00;99.90
983;DHT22;480;48.124;11.578;2023-02-14T11:24:28;6.30;99.90
983;DHT22;480;48.124;11.578;2023-02-14T11:26:58;6.00;99.90
983;DHT22;480;48.124;11.578;2023-02-14T11:29:28;6.20;99.90
983;DHT22;480;48.124;11.578;2023-02-14T11:32:05;6.20;99.90
983;DHT22;480;48.124;11.578;2023-02-14T11:34:35;6.30;99.90
983;DHT22;480;48.124;11.578;2023-02-14T11:37:17;6.50;99.90
983;DHT22;480;48.124;11.578;2023-02-14T11:39:51;6.60;99.90
983;DHT22;480;48.124;11.578;2023-02-14T11:42:35;6.60;99.90
983;DHT22;480;48.124;11.578;2023-02-14T11:45:05;6.60;99.90
983;DHT22;480;48.124;11.578;2023-02-14T11:47:34;6.60;99.90
983;DHT22;480;48.124;11.578;2023-02-14T11:50:19;6.60;99.90
983;DHT22;480;48.124;11.578;2023-02-14T11:53:19;6.70;99.90
983;DHT22;480;48.124;11.578;2023-02-14T11:56:06;6.50;99.90
983;DHT22;480;48.124;11.578;2023-02-14T11:58:53;6.60;99.90
983;DHT22;480;48.124;11.578;2023-02-14T12:01:48;6.50;99.90
983;DHT22;480;48.124;11.578;2023-02-14T12:04:30;6.30;99.90
983;DHT22;480;48.124;11.578;2023-02-14T12:10:31;6.10;99.90
983;DHT22;480;48.124;11.578;2023-02-14T12:13:24;6.30;99.90
983;DHT22;480;48.124;11.578;2023-02-14T12:15:56;6.30;99.90
983;DHT22;480;48.124;11.578;2023-02-14T12:18:42;6.40;99.90
983;DHT22;480;48.124;11.578;2023-02-14T12:21:33;6.30;99.90
983;DHT22;480;48.124;11.578;2023-02-14T12:24:27;6.20;99.90
983;DHT22;480;48.124;11.578;2023-02-14T12:27:17;6.10;99.90
983;DHT22;480;48.124;11.578;2023-02-14T12:29:49;6.30;99.90
983;DHT22;480;48.124;11.578;2023-02-14T12:32:21;6.40;99.90
983;DHT22;480;48.124;11.578;2023-02-14T12:35:14;6.40;99.90
983;DHT22;480;48.124;11.578;2023-02-14T12:37:57;6.60;99.90
983;DHT22;480;48.124;11.578;2023-02-14T12:40:38;6.70;99.90
983;DHT22;480;48.124;11.578;2023-02-14T12:43:41;6.80;99.90
983;DHT22;480;48.124;11.578;2023-02-14T12:46:52;6.80;99.90
983;DHT22;480;48.124;11.578;2023-02-14T12:56:32;7.00;99.90
983;DHT22;480;48.124;11.578;2023-02-14T12:59:10;7.10;99.90
983;DHT22;480;48.124;11.578;2023-02-14T13:05:03;7.20;99.90
983;DHT22;480;48.124;11.578;2023-02-14T13:08:05;7.20;99.90
983;DHT22;480;48.124;11.578;2023-02-14T13:10:59;7.00;99.90
983;DHT22;480;48.124;11.578;2023-02-14T13:13:53;7.00;99.90
983;DHT22;480;48.124;11.578;2023-02-14T13:16:37;6.70;99.90
983;DHT22;480;48.124;11.578;2023-02-14T13:19:18;6.80;99.90
983;DHT22;480;48.124;11.578;2023-02-14T13:22:05;6.90;99.90
983;DHT22;480;48.124;11.578;2023-02-14T13:24:42;6.80;99.90
983;DHT22;480;48.124;11.578;2023-02-14T13:27:20;6.90;99.90
983;DHT22;480;48.124;11.578;2023-02-14T13:29:49;7.10;99.90
983;DHT22;480;48.124;11.578;2023-02-14T13:32:20;7.30;99.90
983;DHT22;480;48.124;11.578;2023-02-14T13:34:49;7.30;99.90
983;DHT22;480;48.124;11.578;2023-02-14T13:37:20;7.40;99.90
983;DHT22;480;48.124;11.578;2023-02-14T13:39:53;7.30;99.90
983;DHT22;480;48.124;11.578;2023-02-14T13:42:52;7.10;99.90
983;DHT22;480;48.124;11.578;2023-02-14T13:45:51;7.20;99.90
983;DHT22;480;48.124;11.578;2023-02-14T13:48:21;7.30;99.90
983;DHT22;480;48.124;11.578;2023-02-14T13:50:56;7.10;99.90
983;DHT22;480;48.124;11.578;2023-02-14T13:53:44;7.10;99.90
983;DHT22;480;48.124;11.578;2023-02-14T13:56:38;7.00;99.90
983;DHT22;480;48.124;11.578;2023-02-14T14:01:44;7.60;99.90
983;DHT22;480;48.124;11.578;2023-02-14T14:04:37;7.70;99.90
983;DHT22;480;48.124;11.578;2023-02-14T14:07:27;7.40;99.90
983;DHT22;480;48.124;11.578;2023-02-14T14:10:00;7.20;99.90
983;DHT22;480;48.124;11.578;2023-02-14T14:12:50;7.30;99.90
983;DHT22;480;48.124;11.578;2023-02-14T14:15:18;6.90;99.90
983;DHT22;480;48.124;11.578;2023-02-14T14:20:43;6.50;99.90
983;DHT22;480;48.124;11.578;2023-02-14T14:23:39;6.50;99.90
983;DHT22;480;48.124;11.578;2023-02-14T14:26:38;6.30;99.90
983;DHT22;480;48.124;11.578;2023-02-14T14:29:24;6.30;99.90
983;DHT22;480;48.124;11.578;2023-02-14T14:31:54;6.20;99.90
983;DHT22;480;48.124;11.578;2023-02-14T14:34:25;6.40;99.90
983;DHT22;480;48.124;11.578;2023-02-14T14:37:01;6.40;99.90
983;DHT22;480;48.124;11.578;2023-02-14T14:39:31;6.30;99.90
983;DHT22;480;48.124;11.578;2023-02-14T14:42:07;6.30;99.90
983;DHT22;480;48.124;11.578;2023-02-14T14:44:35;6.30;99.90
983;DHT22;480;48.124;11.578;2023-02-14T14:47:03;6.20;99.90
983;DHT22;480;48.124;11.578;2023-02-14T14:49:34;6.00;99.90
983;DHT22;480;48.124;11.578;2023-02-14T14:52:05;5.90;99.90
983;DHT22;480;48.124;11.578;2023-02-14T14:54:35;5.90;99.90
983;DHT22;480;48.124;11.578;2023-02-14T14:57:06;5.90;99.90
983;DHT22;480;48.124;11.578;2023-02-14T14:59:48;5.90;99.90
983;DHT22;480;48.124;11.578;2023-02-14T15:02:23;5.90;99.90
983;DHT22;480;48.124;11.578;2023-02-14T15:04:54;5.80;99.90
983;DHT22;480;48.124;11.578;2023-02-14T15:07:25;5.90;99.90
983;DHT22;480;48.124;11.578;2023-02-14T15:09:54;6.00;99.90
983;DHT22;480;48.124;11.578;2023-02-14T15:12:23;5.90;99.90
983;DHT22;480;48.124;11.578;2023-02-14T15:15:10;6.10;99.90
983;DHT22;480;48.124;11.578;2023-02-14T15:17:38;6.00;99.90
983;DHT22;480;48.124;11.578;2023-02-14T15:20:14;5.90;99.90
983;DHT22;480;48.124;11.578;2023-02-14T15:22:44;5.80;99.90
983;DHT22;480;48.124;11.578;2023-02-14T15:25:16;5.80;99.90
983;DHT22;480;48.124;11.578;2023-02-14T15:27:46;5.70;99.90
983;DHT22;480;48.124;11.578;2023-02-14T15:30:24;5.70;99.90
983;DHT22;480;48.124;11.578;2023-02-14T15:32:53;5.70;99.90
983;DHT22;480;48.124;11.578;2023-02-14T15:35:39;5.70;99.90
983;DHT22;480;48.124;11.578;2023-02-14T15:38:09;5.60;99.90
983;DHT22;480;48.124;11.578;2023-02-14T15:40:49;5.60;99.90
983;DHT22;480;48.124;11.578;2023-02-14T15:43:28;5.70;99.90
983;DHT22;480;48.124;11.578;2023-02-14T15:46:11;5.60;99.90
983;DHT22;480;48.124;11.578;2023-02-14T15:48:45;5.50;99.90
983;DHT22;480;48.124;11.578;2023-02-14T15:51:20;5.30;99.90
983;DHT22;480;48.124;11.578;2023-02-14T15:53:51;5.40;99.90
983;DHT22;480;48.124;11.578;2023-02-14T15:56:26;5.40;99.90
983;DHT22;480;48.124;11.578;2023-02-14T15:59:13;5.20;99.90
983;DHT22;480;48.124;11.578;2023-02-14T16:01:48;5.10;99.90
983;DHT22;480;48.124;11.578;2023-02-14T16:04:22;5.10;99.90
983;DHT22;480;48.124;11.578;2023-02-14T16:07:15;5.10;99.90
983;DHT22;480;48.124;11.578;2023-02-14T16:09:46;5.10;99.90
983;DHT22;480;48.124;11.578;2023-02-14T16:12:30;5.10;99.90
983;DHT22;480;48.124;11.578;2023-02-14T16:15:02;5.10;99.90
983;DHT22;480;48.124;11.578;2023-02-14T16:17:39;4.90;99.90
983;DHT22;480;48.124;11.578;2023-02-14T16:20:22;4.80;99.90
983;DHT22;480;48.124;11.578;2023-02-14T16:22:51;4.30;99.90
983;DHT22;480;48.124;11.578;2023-02-14T16:25:22;4.20;99.90
983;DHT22;480;48.124;11.578;2023-02-14T16:27:50;4.10;99.90
983;DHT22;480;48.124;11.578;2023-02-14T16:30:19;4.10;99.90
983;DHT22;480;48.124;11.578;2023-02-14T16:32:48;4.10;99.90
983;DHT22;480;48.124;11.578;2023-02-14T16:35:29;4.00;99.90
983;DHT22;480;48.124;11.578;2023-02-14T16:37:59;3.60;99.90
983;DHT22;480;48.124;11.578;2023-02-14T16:40:30;3.60;99.90
983;DHT22;480;48.124;11.578;2023-02-14T16:42:58;3.40;99.90
983;DHT22;480;48.124;11.578;2023-02-14T16:45:27;3.20;99.90
983;DHT22;480;48.124;11.578;2023-02-14T16:47:54;3.00;99.90
983;DHT22;480;48.124;11.578;2023-02-14T16:50:21;3.20;99.90
983;DHT22;480;48.124;11.578;2023-02-14T16:52:51;3.40;99.90
983;DHT22;480;48.124;11.578;2023-02-14T16:55:22;3.40;99.90
983;DHT22;480;48.124;11.578;2023-02-14T16:57:55;3.30;99.90
983;DHT22;480;48.124;11.578;2023-02-14T17:00:25;3.40;99.90
983;DHT22;480;48.124;11.578;2023-02-14T17:02:53;3.50;99.90
983;DHT22;480;48.124;11.578;2023-02-14T17:05:29;3.30;99.90
983;DHT22;480;48.124;11.578;2023-02-14T17:07:59;3.10;99.90
983;DHT22;480;48.124;11.578;2023-02-14T17:10:29;3.10;99.90
983;DHT22;480;48.124;11.578;2023-02-14T17:12:59;3.30;99.90
983;DHT22;480;48.124;11.578;2023-02-14T17:15:28;3.30;99.90
983;DHT22;480;48.124;11.578;2023-02-14T17:18:01;3.30;99.90
983;DHT22;480;48.124;11.578;2023-02-14T17:20:32;3.50;99.90
983;DHT22;480;48.124;11.578;2023-02-14T17:23:00;3.30;99.90
983;DHT22;480;48.124;11.578;2023-02-14T17:25:30;3.30;99.90
983;DHT22;480;48.124;11.578;2023-02-14T17:27:57;3.30;99.90
983;DHT22;480;48.124;11.578;2023-02-14T17:30:26;3.40;99.90
983;DHT22;480;48.124;11.578;2023-02-14T17:32:57;2.80;99.90
983;DHT22;480;48.124;11.578;2023-02-14T17:35:27;2.80;99.90
983;DHT22;480;48.124;11.578;2023-02-14T17:37:55;2.80;99.90
983;DHT22;480;48.124;11.578;2023-02-14T17:40:32;2.80;99.90
983;DHT22;480;48.124;11.578;2023-02-14T17:43:00;3.00;99.90
983;DHT22;480;48.124;11.578;2023-02-14T17:45:28;3.10;99.90
983;DHT22;480;48.124;11.578;2023-02-14T17:47:57;3.00;99.90
983;DHT22;480;48.124;11.578;2023-02-14T17:50:32;2.80;99.90
983;DHT22;480;48.124;11.578;2023-02-14T17:53:00;2.80;99.90
983;DHT22;480;48.124;11.578;2023-02-14T17:58:48;2.50;99.90